Route Details

Aircraft Information
Group: North America Fleet
Types: B738, B752, B762, B763
Route Data
Distance: 171nm
Duration: 1h 10m
Origin METAR: KLAS 171056Z 00000KT 10SM SCT160 SCT250 30/15 A2992 RMK AO2 SLP099 T03000150
Dest. METAR: KONT 171053Z 17004KT 10SM SCT180 23/14 A2988 RMK AO2 SLP097 T02280144
Freight Data
(for Aug 18, 2022)
Load Factor:
66%
Manifested Cargo: 82,971lbs
Financial History
Total Freight: 316,912lbs
Average Load: 0lbs/flt
Fuel Used: 31,121lbs
Avg. Fuel Used: 0lbs/flt
Fuel Expense: $19,470
Avg. Fuel Expense: $0
Avg. Fuel Cost: $0/lbs
Total Gross Income: $779,604
Pilot Pay: $1,264
Total Expenses: $158,625
Total Revenue: $600,457
Average Revenue: $0

Capitol Logistics 399




KLAS
Harry Reid International Airport
Las Vegas, Nevada
KONT
Ontario International Airport
Ontario, California

Activity Log

Date Flight Route Aircraft Duration
07/20/2022 CPX399 RADYR2 SLVRR DCT FEYLA JCKIE2 B738 0h 44m
07/18/2022 CPX399 RADYR2 SLVRR DCT FEYLA JCKIE2 B738 0h 54m
07/15/2022 CPX399 RADYR1 SLVRR FEYLA JCKIE2 B763 0h 38m
07/14/2022 CPX399 RADYR1 SLVRR FEYLA JCKIE2 B763 0h 38m
07/13/2022 CPX399 RADYR1 SLVRR FEYLA JCKIE2 B738 0h 46m
07/10/2022 CPX399 RADYR2 SLVRR DCT FEYLA JCKIE2 B763 0h 52m